sensor_id;sensor_type;location;lat;lon;timestamp;P1;durP1;ratioP1;P2;durP2;ratioP2
66421;SDS011;53228;51.380;0.098;2024-02-28T00:01:55;27.77;;;4.47;;
66421;SDS011;53228;51.380;0.098;2024-02-28T00:04:22;18.90;;;5.22;;
66421;SDS011;53228;51.380;0.098;2024-02-28T00:06:50;24.33;;;5.07;;
66421;SDS011;53228;51.380;0.098;2024-02-28T00:09:18;23.55;;;6.13;;
66421;SDS011;53228;51.380;0.098;2024-02-28T00:11:46;28.30;;;5.85;;
66421;SDS011;53228;51.380;0.098;2024-02-28T00:14:14;27.13;;;7.00;;
66421;SDS011;53228;51.380;0.098;2024-02-28T00:16:42;29.88;;;5.68;;
66421;SDS011;53228;51.380;0.098;2024-02-28T00:19:10;28.17;;;6.20;;
66421;SDS011;53228;51.380;0.098;2024-02-28T00:21:39;18.80;;;5.57;;
66421;SDS011;53228;51.380;0.098;2024-02-28T00:24:08;25.13;;;5.60;;
66421;SDS011;53228;51.380;0.098;2024-02-28T00:26:40;17.98;;;4.97;;
66421;SDS011;53228;51.380;0.098;2024-02-28T00:29:09;20.40;;;5.22;;
66421;SDS011;53228;51.380;0.098;2024-02-28T00:31:37;24.00;;;4.82;;
66421;SDS011;53228;51.380;0.098;2024-02-28T00:34:04;16.73;;;4.53;;
66421;SDS011;53228;51.380;0.098;2024-02-28T00:36:33;17.38;;;4.57;;
66421;SDS011;53228;51.380;0.098;2024-02-28T00:39:18;21.40;;;4.43;;
66421;SDS011;53228;51.380;0.098;2024-02-28T00:41:46;21.25;;;4.93;;
66421;SDS011;53228;51.380;0.098;2024-02-28T00:44:13;17.95;;;4.03;;
66421;SDS011;53228;51.380;0.098;2024-02-28T00:46:41;13.65;;;4.38;;
66421;SDS011;53228;51.380;0.098;2024-02-28T00:49:08;13.25;;;3.97;;
66421;SDS011;53228;51.380;0.098;2024-02-28T00:51:36;16.55;;;4.07;;
66421;SDS011;53228;51.380;0.098;2024-02-28T00:54:04;26.98;;;4.28;;
66421;SDS011;53228;51.380;0.098;2024-02-28T00:56:32;19.40;;;4.10;;
66421;SDS011;53228;51.380;0.098;2024-02-28T00:59:00;11.50;;;4.10;;
66421;SDS011;53228;51.380;0.098;2024-02-28T01:01:30;12.60;;;3.38;;
66421;SDS011;53228;51.380;0.098;2024-02-28T01:03:57;15.55;;;3.45;;
66421;SDS011;53228;51.380;0.098;2024-02-28T01:06:25;16.27;;;3.72;;
66421;SDS011;53228;51.380;0.098;2024-02-28T01:08:53;25.60;;;4.03;;
66421;SDS011;53228;51.380;0.098;2024-02-28T01:11:20;16.38;;;3.60;;
66421;SDS011;53228;51.380;0.098;2024-02-28T01:13:48;34.08;;;4.63;;
66421;SDS011;53228;51.380;0.098;2024-02-28T01:16:16;17.23;;;3.58;;
66421;SDS011;53228;51.380;0.098;2024-02-28T01:18:44;21.13;;;3.55;;
66421;SDS011;53228;51.380;0.098;2024-02-28T01:21:12;16.60;;;4.05;;
66421;SDS011;53228;51.380;0.098;2024-02-28T01:23:39;14.27;;;3.00;;
66421;SDS011;53228;51.380;0.098;2024-02-28T01:26:07;17.38;;;4.15;;
66421;SDS011;53228;51.380;0.098;2024-02-28T01:28:35;15.43;;;3.38;;
66421;SDS011;53228;51.380;0.098;2024-02-28T01:31:02;16.58;;;3.30;;
66421;SDS011;53228;51.380;0.098;2024-02-28T01:33:30;13.82;;;3.50;;
66421;SDS011;53228;51.380;0.098;2024-02-28T01:35:59;15.68;;;4.10;;
66421;SDS011;53228;51.380;0.098;2024-02-28T01:38:27;22.70;;;5.07;;
66421;SDS011;53228;51.380;0.098;2024-02-28T01:40:54;17.23;;;4.18;;
66421;SDS011;53228;51.380;0.098;2024-02-28T01:43:22;19.80;;;4.10;;
66421;SDS011;53228;51.380;0.098;2024-02-28T01:45:50;11.52;;;3.28;;
66421;SDS011;53228;51.380;0.098;2024-02-28T01:48:18;17.50;;;3.33;;
66421;SDS011;53228;51.380;0.098;2024-02-28T01:50:46;20.10;;;4.40;;
66421;SDS011;53228;51.380;0.098;2024-02-28T01:53:14;23.08;;;4.35;;
66421;SDS011;53228;51.380;0.098;2024-02-28T01:58:14;19.58;;;3.90;;
66421;SDS011;53228;51.380;0.098;2024-02-28T02:00:41;14.60;;;3.33;;
66421;SDS011;53228;51.380;0.098;2024-02-28T02:03:10;14.73;;;4.22;;
66421;SDS011;53228;51.380;0.098;2024-02-28T02:05:38;17.70;;;4.45;;
66421;SDS011;53228;51.380;0.098;2024-02-28T02:08:06;18.30;;;4.15;;
66421;SDS011;53228;51.380;0.098;2024-02-28T02:10:33;24.20;;;4.72;;
66421;SDS011;53228;51.380;0.098;2024-02-28T02:13:07;24.17;;;5.15;;
66421;SDS011;53228;51.380;0.098;2024-02-28T02:15:34;24.25;;;4.70;;
66421;SDS011;53228;51.380;0.098;2024-02-28T02:18:02;17.25;;;4.93;;
66421;SDS011;53228;51.380;0.098;2024-02-28T02:20:32;21.63;;;5.00;;
66421;SDS011;53228;51.380;0.098;2024-02-28T02:23:03;19.88;;;5.05;;
66421;SDS011;53228;51.380;0.098;2024-02-28T02:25:31;22.23;;;4.20;;
66421;SDS011;53228;51.380;0.098;2024-02-28T02:27:59;22.45;;;4.60;;
66421;SDS011;53228;51.380;0.098;2024-02-28T02:30:26;21.08;;;4.88;;
66421;SDS011;53228;51.380;0.098;2024-02-28T02:32:54;22.77;;;5.13;;
66421;SDS011;53228;51.380;0.098;2024-02-28T02:35:22;24.70;;;5.85;;
66421;SDS011;53228;51.380;0.098;2024-02-28T02:37:49;23.13;;;5.28;;
66421;SDS011;53228;51.380;0.098;2024-02-28T02:40:17;22.65;;;4.90;;
66421;SDS011;53228;51.380;0.098;2024-02-28T02:42:45;19.52;;;4.43;;
66421;SDS011;53228;51.380;0.098;2024-02-28T02:45:13;22.27;;;5.68;;
66421;SDS011;53228;51.380;0.098;2024-02-28T02:47:41;15.27;;;4.72;;
66421;SDS011;53228;51.380;0.098;2024-02-28T02:50:10;32.80;;;5.40;;
66421;SDS011;53228;51.380;0.098;2024-02-28T02:52:39;22.15;;;4.82;;
66421;SDS011;53228;51.380;0.098;2024-02-28T02:55:06;14.25;;;4.43;;
66421;SDS011;53228;51.380;0.098;2024-02-28T02:57:35;15.75;;;4.47;;
66421;SDS011;53228;51.380;0.098;2024-02-28T03:00:03;17.83;;;4.75;;
66421;SDS011;53228;51.380;0.098;2024-02-28T03:02:31;21.27;;;4.70;;
66421;SDS011;53228;51.380;0.098;2024-02-28T03:04:59;23.48;;;5.10;;
66421;SDS011;53228;51.380;0.098;2024-02-28T03:07:26;26.58;;;4.93;;
66421;SDS011;53228;51.380;0.098;2024-02-28T03:09:54;31.85;;;5.82;;
66421;SDS011;53228;51.380;0.098;2024-02-28T03:12:22;27.08;;;5.97;;
66421;SDS011;53228;51.380;0.098;2024-02-28T03:14:50;21.27;;;5.60;;
66421;SDS011;53228;51.380;0.098;2024-02-28T03:17:17;20.02;;;4.72;;
66421;SDS011;53228;51.380;0.098;2024-02-28T03:19:45;19.13;;;4.95;;
66421;SDS011;53228;51.380;0.098;2024-02-28T03:22:13;17.05;;;4.70;;
66421;SDS011;53228;51.380;0.098;2024-02-28T03:24:41;17.20;;;4.80;;
66421;SDS011;53228;51.380;0.098;2024-02-28T03:27:09;18.90;;;4.80;;
66421;SDS011;53228;51.380;0.098;2024-02-28T03:29:36;18.77;;;5.13;;
66421;SDS011;53228;51.380;0.098;2024-02-28T03:32:04;19.85;;;5.20;;
66421;SDS011;53228;51.380;0.098;2024-02-28T03:34:32;24.58;;;5.35;;
66421;SDS011;53228;51.380;0.098;2024-02-28T03:37:00;16.63;;;5.65;;
66421;SDS011;53228;51.380;0.098;2024-02-28T03:39:27;17.80;;;5.00;;
66421;SDS011;53228;51.380;0.098;2024-02-28T03:41:55;16.15;;;4.53;;
66421;SDS011;53228;51.380;0.098;2024-02-28T03:44:23;16.42;;;4.32;;
66421;SDS011;53228;51.380;0.098;2024-02-28T03:46:52;23.25;;;5.60;;
66421;SDS011;53228;51.380;0.098;2024-02-28T03:49:20;20.98;;;5.03;;
66421;SDS011;53228;51.380;0.098;2024-02-28T03:51:48;15.38;;;4.78;;
66421;SDS011;53228;51.380;0.098;2024-02-28T03:54:16;20.92;;;5.03;;
66421;SDS011;53228;51.380;0.098;2024-02-28T03:56:44;29.38;;;5.05;;
66421;SDS011;53228;51.380;0.098;2024-02-28T03:59:11;20.33;;;4.90;;
66421;SDS011;53228;51.380;0.098;2024-02-28T04:01:39;16.45;;;5.65;;
66421;SDS011;53228;51.380;0.098;2024-02-28T04:04:07;17.27;;;5.50;;
66421;SDS011;53228;51.380;0.098;2024-02-28T04:06:34;16.65;;;4.70;;
66421;SDS011;53228;51.380;0.098;2024-02-28T04:09:02;17.63;;;5.10;;
66421;SDS011;53228;51.380;0.098;2024-02-28T04:11:30;24.13;;;6.13;;
66421;SDS011;53228;51.380;0.098;2024-02-28T04:13:58;21.85;;;5.38;;
66421;SDS011;53228;51.380;0.098;2024-02-28T04:16:26;28.75;;;6.40;;
66421;SDS011;53228;51.380;0.098;2024-02-28T04:18:54;30.60;;;6.55;;
66421;SDS011;53228;51.380;0.098;2024-02-28T04:21:22;31.23;;;6.90;;
66421;SDS011;53228;51.380;0.098;2024-02-28T04:23:49;32.55;;;8.90;;
66421;SDS011;53228;51.380;0.098;2024-02-28T04:26:17;16.02;;;7.35;;
66421;SDS011;53228;51.380;0.098;2024-02-28T04:28:45;22.67;;;7.05;;
66421;SDS011;53228;51.380;0.098;2024-02-28T04:31:12;21.95;;;7.25;;
66421;SDS011;53228;51.380;0.098;2024-02-28T04:33:40;23.00;;;7.30;;
66421;SDS011;53228;51.380;0.098;2024-02-28T04:36:08;21.23;;;7.43;;
66421;SDS011;53228;51.380;0.098;2024-02-28T04:38:35;33.53;;;8.05;;
66421;SDS011;53228;51.380;0.098;2024-02-28T04:41:04;33.10;;;7.45;;
66421;SDS011;53228;51.380;0.098;2024-02-28T04:43:31;23.67;;;7.43;;
66421;SDS011;53228;51.380;0.098;2024-02-28T04:45:59;29.23;;;7.28;;
66421;SDS011;53228;51.380;0.098;2024-02-28T04:48:27;33.33;;;8.32;;
66421;SDS011;53228;51.380;0.098;2024-02-28T04:50:55;28.58;;;8.15;;
66421;SDS011;53228;51.380;0.098;2024-02-28T04:53:23;30.85;;;9.85;;
66421;SDS011;53228;51.380;0.098;2024-02-28T04:55:51;32.33;;;9.40;;
66421;SDS011;53228;51.380;0.098;2024-02-28T04:58:18;31.25;;;8.98;;
66421;SDS011;53228;51.380;0.098;2024-02-28T05:00:46;41.30;;;10.30;;
66421;SDS011;53228;51.380;0.098;2024-02-28T05:03:14;30.63;;;9.23;;
66421;SDS011;53228;51.380;0.098;2024-02-28T05:05:42;33.10;;;9.48;;
66421;SDS011;53228;51.380;0.098;2024-02-28T05:08:10;20.85;;;8.13;;
66421;SDS011;53228;51.380;0.098;2024-02-28T05:10:37;26.17;;;8.63;;
66421;SDS011;53228;51.380;0.098;2024-02-28T05:13:06;31.40;;;8.30;;
66421;SDS011;53228;51.380;0.098;2024-02-28T05:15:33;29.42;;;7.88;;
66421;SDS011;53228;51.380;0.098;2024-02-28T05:18:01;25.58;;;6.90;;
66421;SDS011;53228;51.380;0.098;2024-02-28T05:20:29;24.83;;;7.10;;
66421;SDS011;53228;51.380;0.098;2024-02-28T05:22:57;24.20;;;6.47;;
66421;SDS011;53228;51.380;0.098;2024-02-28T05:25:25;26.80;;;7.28;;
66421;SDS011;53228;51.380;0.098;2024-02-28T05:27:52;22.23;;;6.85;;
66421;SDS011;53228;51.380;0.098;2024-02-28T05:30:20;24.08;;;6.45;;
66421;SDS011;53228;51.380;0.098;2024-02-28T05:32:48;29.67;;;6.97;;
66421;SDS011;53228;51.380;0.098;2024-02-28T05:35:15;24.65;;;7.20;;
66421;SDS011;53228;51.380;0.098;2024-02-28T05:37:44;21.90;;;6.45;;
66421;SDS011;53228;51.380;0.098;2024-02-28T05:40:13;22.02;;;7.85;;
66421;SDS011;53228;51.380;0.098;2024-02-28T05:42:41;29.15;;;6.53;;
66421;SDS011;53228;51.380;0.098;2024-02-28T05:45:10;15.93;;;6.15;;
66421;SDS011;53228;51.380;0.098;2024-02-28T05:47:37;28.50;;;6.43;;
66421;SDS011;53228;51.380;0.098;2024-02-28T05:50:05;21.05;;;6.30;;
66421;SDS011;53228;51.380;0.098;2024-02-28T05:52:33;19.92;;;6.07;;
66421;SDS011;53228;51.380;0.098;2024-02-28T05:55:01;24.67;;;6.47;;
66421;SDS011;53228;51.380;0.098;2024-02-28T05:57:28;70.47;;;25.52;;
66421;SDS011;53228;51.380;0.098;2024-02-28T05:59:56;88.18;;;29.10;;
66421;SDS011;53228;51.380;0.098;2024-02-28T06:02:24;46.70;;;12.13;;
66421;SDS011;53228;51.380;0.098;2024-02-28T06:04:52;22.25;;;7.10;;
66421;SDS011;53228;51.380;0.098;2024-02-28T06:07:19;22.20;;;6.75;;
66421;SDS011;53228;51.380;0.098;2024-02-28T06:09:47;23.35;;;7.07;;
66421;SDS011;53228;51.380;0.098;2024-02-28T06:12:15;25.70;;;7.28;;
66421;SDS011;53228;51.380;0.098;2024-02-28T06:14:43;21.70;;;7.68;;
66421;SDS011;53228;51.380;0.098;2024-02-28T06:17:11;31.33;;;6.78;;
66421;SDS011;53228;51.380;0.098;2024-02-28T06:19:38;24.23;;;7.30;;
66421;SDS011;53228;51.380;0.098;2024-02-28T06:22:06;20.95;;;8.05;;
66421;SDS011;53228;51.380;0.098;2024-02-28T06:24:34;17.40;;;6.45;;
66421;SDS011;53228;51.380;0.098;2024-02-28T06:27:02;20.48;;;5.60;;
66421;SDS011;53228;51.380;0.098;2024-02-28T06:29:32;19.40;;;6.18;;
66421;SDS011;53228;51.380;0.098;2024-02-28T06:32:03;23.77;;;6.60;;
66421;SDS011;53228;51.380;0.098;2024-02-28T06:34:31;30.60;;;7.03;;
66421;SDS011;53228;51.380;0.098;2024-02-28T06:36:59;37.22;;;7.50;;
66421;SDS011;53228;51.380;0.098;2024-02-28T06:39:26;26.77;;;8.18;;
66421;SDS011;53228;51.380;0.098;2024-02-28T06:41:54;32.13;;;10.25;;
66421;SDS011;53228;51.380;0.098;2024-02-28T06:44:22;27.42;;;7.60;;
66421;SDS011;53228;51.380;0.098;2024-02-28T06:46:49;28.67;;;7.22;;
66421;SDS011;53228;51.380;0.098;2024-02-28T06:49:17;33.13;;;8.43;;
66421;SDS011;53228;51.380;0.098;2024-02-28T06:51:45;26.23;;;7.88;;
66421;SDS011;53228;51.380;0.098;2024-02-28T06:54:12;24.00;;;7.68;;
66421;SDS011;53228;51.380;0.098;2024-02-28T06:56:40;31.85;;;7.72;;
66421;SDS011;53228;51.380;0.098;2024-02-28T06:59:08;27.52;;;8.25;;
66421;SDS011;53228;51.380;0.098;2024-02-28T07:01:36;19.38;;;6.95;;
66421;SDS011;53228;51.380;0.098;2024-02-28T07:04:04;27.15;;;6.63;;
66421;SDS011;53228;51.380;0.098;2024-02-28T07:06:32;23.30;;;6.30;;
66421;SDS011;53228;51.380;0.098;2024-02-28T07:09:00;20.40;;;6.30;;
66421;SDS011;53228;51.380;0.098;2024-02-28T07:11:27;22.40;;;7.13;;
66421;SDS011;53228;51.380;0.098;2024-02-28T07:13:55;25.73;;;7.25;;
66421;SDS011;53228;51.380;0.098;2024-02-28T07:16:24;20.25;;;5.35;;
66421;SDS011;53228;51.380;0.098;2024-02-28T07:18:53;18.05;;;6.18;;
66421;SDS011;53228;51.380;0.098;2024-02-28T07:21:21;20.90;;;6.13;;
66421;SDS011;53228;51.380;0.098;2024-02-28T07:23:48;19.08;;;6.40;;
66421;SDS011;53228;51.380;0.098;2024-02-28T07:26:16;25.13;;;6.10;;
66421;SDS011;53228;51.380;0.098;2024-02-28T07:28:53;29.88;;;6.43;;
66421;SDS011;53228;51.380;0.098;2024-02-28T07:31:21;17.73;;;5.55;;
66421;SDS011;53228;51.380;0.098;2024-02-28T07:33:49;20.88;;;5.65;;
66421;SDS011;53228;51.380;0.098;2024-02-28T07:36:17;23.85;;;5.93;;
66421;SDS011;53228;51.380;0.098;2024-02-28T07:38:44;24.92;;;6.03;;
66421;SDS011;53228;51.380;0.098;2024-02-28T07:41:12;17.42;;;5.25;;
66421;SDS011;53228;51.380;0.098;2024-02-28T07:43:42;19.65;;;6.60;;
66421;SDS011;53228;51.380;0.098;2024-02-28T07:46:10;22.70;;;6.55;;
66421;SDS011;53228;51.380;0.098;2024-02-28T07:48:39;17.83;;;8.18;;
66421;SDS011;53228;51.380;0.098;2024-02-28T07:51:07;17.58;;;6.47;;
66421;SDS011;53228;51.380;0.098;2024-02-28T07:53:35;19.23;;;5.57;;
66421;SDS011;53228;51.380;0.098;2024-02-28T07:56:03;23.67;;;7.85;;
66421;SDS011;53228;51.380;0.098;2024-02-28T07:58:30;20.90;;;6.75;;
66421;SDS011;53228;51.380;0.098;2024-02-28T08:00:58;37.40;;;11.15;;
66421;SDS011;53228;51.380;0.098;2024-02-28T08:03:26;32.28;;;13.38;;
66421;SDS011;53228;51.380;0.098;2024-02-28T08:05:54;29.55;;;9.95;;
66421;SDS011;53228;51.380;0.098;2024-02-28T08:08:21;28.85;;;9.23;;
66421;SDS011;53228;51.380;0.098;2024-02-28T08:10:49;25.65;;;7.55;;
66421;SDS011;53228;51.380;0.098;2024-02-28T08:13:19;21.42;;;7.18;;
66421;SDS011;53228;51.380;0.098;2024-02-28T08:15:46;19.50;;;6.60;;
66421;SDS011;53228;51.380;0.098;2024-02-28T08:18:14;18.85;;;6.38;;
66421;SDS011;53228;51.380;0.098;2024-02-28T08:20:42;21.98;;;5.90;;
66421;SDS011;53228;51.380;0.098;2024-02-28T08:23:10;15.73;;;5.30;;
66421;SDS011;53228;51.380;0.098;2024-02-28T08:25:38;23.25;;;4.53;;
66421;SDS011;53228;51.380;0.098;2024-02-28T08:28:05;23.00;;;4.47;;
66421;SDS011;53228;51.380;0.098;2024-02-28T08:30:33;19.38;;;5.38;;
66421;SDS011;53228;51.380;0.098;2024-02-28T08:33:01;19.67;;;5.13;;
66421;SDS011;53228;51.380;0.098;2024-02-28T08:35:29;17.60;;;5.70;;
66421;SDS011;53228;51.380;0.098;2024-02-28T08:37:57;23.55;;;6.07;;
66421;SDS011;53228;51.380;0.098;2024-02-28T08:40:24;16.27;;;5.13;;
66421;SDS011;53228;51.380;0.098;2024-02-28T08:42:52;12.63;;;4.40;;
66421;SDS011;53228;51.380;0.098;2024-02-28T08:45:22;16.73;;;5.45;;
66421;SDS011;53228;51.380;0.098;2024-02-28T08:47:50;24.42;;;6.57;;
66421;SDS011;53228;51.380;0.098;2024-02-28T08:50:18;18.88;;;5.53;;
66421;SDS011;53228;51.380;0.098;2024-02-28T08:52:46;11.20;;;4.57;;
66421;SDS011;53228;51.380;0.098;2024-02-28T08:55:14;13.23;;;4.70;;
66421;SDS011;53228;51.380;0.098;2024-02-28T08:57:45;18.05;;;4.43;;
66421;SDS011;53228;51.380;0.098;2024-02-28T09:00:14;23.27;;;6.82;;
66421;SDS011;53228;51.380;0.098;2024-02-28T09:02:42;31.63;;;8.88;;
66421;SDS011;53228;51.380;0.098;2024-02-28T09:05:11;22.38;;;9.18;;
66421;SDS011;53228;51.380;0.098;2024-02-28T09:07:39;58.83;;;20.40;;
66421;SDS011;53228;51.380;0.098;2024-02-28T09:10:06;69.65;;;21.45;;
66421;SDS011;53228;51.380;0.098;2024-02-28T09:12:35;61.67;;;19.45;;
66421;SDS011;53228;51.380;0.098;2024-02-28T09:15:03;90.68;;;31.23;;
66421;SDS011;53228;51.380;0.098;2024-02-28T09:17:31;67.47;;;22.25;;
66421;SDS011;53228;51.380;0.098;2024-02-28T09:19:59;16.60;;;4.32;;
66421;SDS011;53228;51.380;0.098;2024-02-28T09:22:28;26.67;;;7.50;;
66421;SDS011;53228;51.380;0.098;2024-02-28T09:24:56;22.23;;;7.35;;
66421;SDS011;53228;51.380;0.098;2024-02-28T09:27:23;27.42;;;8.80;;
66421;SDS011;53228;51.380;0.098;2024-02-28T09:29:52;23.15;;;5.38;;
66421;SDS011;53228;51.380;0.098;2024-02-28T09:32:20;12.20;;;3.05;;
66421;SDS011;53228;51.380;0.098;2024-02-28T09:34:48;19.65;;;3.72;;
66421;SDS011;53228;51.380;0.098;2024-02-28T09:37:16;19.17;;;4.72;;
66421;SDS011;53228;51.380;0.098;2024-02-28T09:39:44;7.93;;;3.17;;
66421;SDS011;53228;51.380;0.098;2024-02-28T09:42:12;36.22;;;8.02;;
66421;SDS011;53228;51.380;0.098;2024-02-28T09:44:42;15.10;;;3.55;;
66421;SDS011;53228;51.380;0.098;2024-02-28T09:47:10;14.73;;;4.47;;
66421;SDS011;53228;51.380;0.098;2024-02-28T09:49:38;21.15;;;4.40;;
66421;SDS011;53228;51.380;0.098;2024-02-28T09:52:11;19.42;;;6.03;;
66421;SDS011;53228;51.380;0.098;2024-02-28T09:54:38;17.17;;;3.72;;
66421;SDS011;53228;51.380;0.098;2024-02-28T09:57:09;26.83;;;4.22;;
66421;SDS011;53228;51.380;0.098;2024-02-28T09:59:39;23.25;;;3.80;;
66421;SDS011;53228;51.380;0.098;2024-02-28T10:02:20;14.15;;;3.95;;
66421;SDS011;53228;51.380;0.098;2024-02-28T10:04:50;9.27;;;2.85;;
66421;SDS011;53228;51.380;0.098;2024-02-28T10:07:19;16.67;;;3.90;;
66421;SDS011;53228;51.380;0.098;2024-02-28T10:09:46;10.30;;;3.08;;
66421;SDS011;53228;51.380;0.098;2024-02-28T10:12:14;10.98;;;2.83;;
66421;SDS011;53228;51.380;0.098;2024-02-28T10:14:42;13.75;;;3.55;;
66421;SDS011;53228;51.380;0.098;2024-02-28T10:17:10;13.48;;;3.20;;
66421;SDS011;53228;51.380;0.098;2024-02-28T10:19:38;18.98;;;3.45;;
66421;SDS011;53228;51.380;0.098;2024-02-28T10:22:06;14.32;;;3.03;;
66421;SDS011;53228;51.380;0.098;2024-02-28T10:24:34;12.07;;;2.58;;
66421;SDS011;53228;51.380;0.098;2024-02-28T10:27:02;17.92;;;3.05;;
66421;SDS011;53228;51.380;0.098;2024-02-28T10:29:30;16.05;;;2.42;;
66421;SDS011;53228;51.380;0.098;2024-02-28T10:34:30;17.48;;;3.22;;
66421;SDS011;53228;51.380;0.098;2024-02-28T10:36:58;18.05;;;3.35;;
66421;SDS011;53228;51.380;0.098;2024-02-28T10:39:28;10.48;;;2.28;;
66421;SDS011;53228;51.380;0.098;2024-02-28T10:41:57;11.35;;;3.15;;
66421;SDS011;53228;51.380;0.098;2024-02-28T10:44:27;21.80;;;2.63;;
66421;SDS011;53228;51.380;0.098;2024-02-28T10:49:27;14.57;;;2.47;;
66421;SDS011;53228;51.380;0.098;2024-02-28T10:51:56;15.15;;;2.40;;
66421;SDS011;53228;51.380;0.098;2024-02-28T10:54:27;17.08;;;2.40;;
66421;SDS011;53228;51.380;0.098;2024-02-28T10:56:57;20.65;;;2.95;;
66421;SDS011;53228;51.380;0.098;2024-02-28T10:59:25;18.45;;;3.15;;
66421;SDS011;53228;51.380;0.098;2024-02-28T11:01:56;10.25;;;2.35;;
66421;SDS011;53228;51.380;0.098;2024-02-28T11:04:24;9.93;;;2.45;;
66421;SDS011;53228;51.380;0.098;2024-02-28T11:06:54;16.30;;;2.90;;
66421;SDS011;53228;51.380;0.098;2024-02-28T11:09:24;16.88;;;2.42;;
66421;SDS011;53228;51.380;0.098;2024-02-28T11:11:53;12.40;;;2.58;;
66421;SDS011;53228;51.380;0.098;2024-02-28T11:14:23;12.20;;;2.78;;
66421;SDS011;53228;51.380;0.098;2024-02-28T11:17:02;15.68;;;2.55;;
66421;SDS011;53228;51.380;0.098;2024-02-28T11:19:30;10.43;;;2.88;;
66421;SDS011;53228;51.380;0.098;2024-02-28T11:22:00;17.50;;;2.78;;
66421;SDS011;53228;51.380;0.098;2024-02-28T11:24:32;10.70;;;2.78;;
66421;SDS011;53228;51.380;0.098;2024-02-28T11:27:01;10.10;;;3.13;;
66421;SDS011;53228;51.380;0.098;2024-02-28T11:29:30;10.32;;;2.33;;
66421;SDS011;53228;51.380;0.098;2024-02-28T11:32:00;17.65;;;3.33;;
66421;SDS011;53228;51.380;0.098;2024-02-28T11:34:28;16.98;;;2.47;;
66421;SDS011;53228;51.380;0.098;2024-02-28T11:36:55;16.25;;;2.63;;
66421;SDS011;53228;51.380;0.098;2024-02-28T11:39:26;13.52;;;2.40;;
66421;SDS011;53228;51.380;0.098;2024-02-28T11:41:54;14.73;;;2.67;;
66421;SDS011;53228;51.380;0.098;2024-02-28T11:44:22;22.30;;;3.13;;
66421;SDS011;53228;51.380;0.098;2024-02-28T11:46:50;15.82;;;2.25;;
66421;SDS011;53228;51.380;0.098;2024-02-28T11:49:18;14.18;;;3.33;;
66421;SDS011;53228;51.380;0.098;2024-02-28T11:51:46;18.85;;;3.80;;
66421;SDS011;53228;51.380;0.098;2024-02-28T11:54:17;18.75;;;2.72;;
66421;SDS011;53228;51.380;0.098;2024-02-28T11:59:12;8.48;;;2.40;;
66421;SDS011;53228;51.380;0.098;2024-02-28T12:01:41;10.60;;;3.67;;
66421;SDS011;53228;51.380;0.098;2024-02-28T12:04:12;23.38;;;3.47;;
66421;SDS011;53228;51.380;0.098;2024-02-28T12:06:41;11.13;;;3.03;;
66421;SDS011;53228;51.380;0.098;2024-02-28T12:09:11;18.27;;;2.72;;
66421;SDS011;53228;51.380;0.098;2024-02-28T12:11:50;12.57;;;3.53;;
66421;SDS011;53228;51.380;0.098;2024-02-28T12:14:18;14.38;;;3.17;;
66421;SDS011;53228;51.380;0.098;2024-02-28T12:16:47;15.20;;;2.85;;
66421;SDS011;53228;51.380;0.098;2024-02-28T12:19:16;15.07;;;3.03;;
66421;SDS011;53228;51.380;0.098;2024-02-28T12:21:47;12.63;;;3.05;;
66421;SDS011;53228;51.380;0.098;2024-02-28T12:24:14;12.40;;;2.90;;
66421;SDS011;53228;51.380;0.098;2024-02-28T12:26:42;15.93;;;4.03;;
66421;SDS011;53228;51.380;0.098;2024-02-28T12:29:13;10.20;;;2.97;;
66421;SDS011;53228;51.380;0.098;2024-02-28T12:31:41;11.90;;;3.17;;
66421;SDS011;53228;51.380;0.098;2024-02-28T12:34:08;13.15;;;3.05;;
66421;SDS011;53228;51.380;0.098;2024-02-28T12:36:36;13.00;;;3.88;;
66421;SDS011;53228;51.380;0.098;2024-02-28T12:39:04;18.00;;;3.95;;
66421;SDS011;53228;51.380;0.098;2024-02-28T12:41:33;22.88;;;3.75;;
66421;SDS011;53228;51.380;0.098;2024-02-28T12:44:07;11.13;;;3.35;;
66421;SDS011;53228;51.380;0.098;2024-02-28T12:46:36;9.38;;;3.10;;
66421;SDS011;53228;51.380;0.098;2024-02-28T12:49:04;13.60;;;3.67;;
66421;SDS011;53228;51.380;0.098;2024-02-28T12:51:36;7.68;;;2.95;;
66421;SDS011;53228;51.380;0.098;2024-02-28T12:54:08;12.52;;;3.67;;
66421;SDS011;53228;51.380;0.098;2024-02-28T12:56:36;14.90;;;3.13;;
66421;SDS011;53228;51.380;0.098;2024-02-28T12:59:05;15.20;;;3.35;;
66421;SDS011;53228;51.380;0.098;2024-02-28T13:01:34;11.27;;;3.92;;
66421;SDS011;53228;51.380;0.098;2024-02-28T13:04:03;12.10;;;3.28;;
66421;SDS011;53228;51.380;0.098;2024-02-28T13:06:31;11.93;;;3.50;;
66421;SDS011;53228;51.380;0.098;2024-02-28T13:08:59;13.70;;;3.72;;
66421;SDS011;53228;51.380;0.098;2024-02-28T13:11:26;8.70;;;3.17;;
66421;SDS011;53228;51.380;0.098;2024-02-28T13:13:55;12.23;;;3.55;;
66421;SDS011;53228;51.380;0.098;2024-02-28T13:16:22;16.35;;;4.10;;
66421;SDS011;53228;51.380;0.098;2024-02-28T13:18:50;14.35;;;4.25;;
66421;SDS011;53228;51.380;0.098;2024-02-28T13:21:19;8.63;;;3.63;;
66421;SDS011;53228;51.380;0.098;2024-02-28T13:23:49;10.38;;;3.55;;
66421;SDS011;53228;51.380;0.098;2024-02-28T13:26:17;15.02;;;4.22;;
66421;SDS011;53228;51.380;0.098;2024-02-28T13:28:46;16.30;;;4.63;;
66421;SDS011;53228;51.380;0.098;2024-02-28T13:31:19;14.90;;;4.57;;
66421;SDS011;53228;51.380;0.098;2024-02-28T13:33:47;10.40;;;3.95;;
66421;SDS011;53228;51.380;0.098;2024-02-28T13:36:16;15.70;;;3.90;;
66421;SDS011;53228;51.380;0.098;2024-02-28T13:38:44;11.02;;;3.70;;
66421;SDS011;53228;51.380;0.098;2024-02-28T13:41:11;13.65;;;3.70;;
66421;SDS011;53228;51.380;0.098;2024-02-28T13:43:39;15.45;;;4.18;;
66421;SDS011;53228;51.380;0.098;2024-02-28T13:46:07;12.98;;;3.50;;
66421;SDS011;53228;51.380;0.098;2024-02-28T13:48:37;9.27;;;3.17;;
66421;SDS011;53228;51.380;0.098;2024-02-28T13:51:05;12.27;;;3.53;;
66421;SDS011;53228;51.380;0.098;2024-02-28T13:53:32;8.75;;;3.22;;
66421;SDS011;53228;51.380;0.098;2024-02-28T13:56:00;12.30;;;2.97;;
66421;SDS011;53228;51.380;0.098;2024-02-28T13:58:28;15.02;;;3.13;;
66421;SDS011;53228;51.380;0.098;2024-02-28T14:01:08;8.13;;;2.53;;
66421;SDS011;53228;51.380;0.098;2024-02-28T14:03:37;9.13;;;3.80;;
66421;SDS011;53228;51.380;0.098;2024-02-28T14:06:09;10.45;;;3.20;;
66421;SDS011;53228;51.380;0.098;2024-02-28T14:08:36;9.70;;;2.90;;
66421;SDS011;53228;51.380;0.098;2024-02-28T14:11:07;10.23;;;2.97;;
66421;SDS011;53228;51.380;0.098;2024-02-28T14:13:35;9.68;;;3.30;;
66421;SDS011;53228;51.380;0.098;2024-02-28T14:16:03;10.73;;;3.92;;
66421;SDS011;53228;51.380;0.098;2024-02-28T14:18:31;8.75;;;2.60;;
66421;SDS011;53228;51.380;0.098;2024-02-28T14:20:58;8.07;;;2.63;;
66421;SDS011;53228;51.380;0.098;2024-02-28T14:23:30;11.32;;;2.50;;
66421;SDS011;53228;51.380;0.098;2024-02-28T14:25:59;11.18;;;3.00;;
66421;SDS011;53228;51.380;0.098;2024-02-28T14:28:26;13.05;;;3.33;;
66421;SDS011;53228;51.380;0.098;2024-02-28T14:30:54;8.77;;;2.00;;
66421;SDS011;53228;51.380;0.098;2024-02-28T14:33:22;7.03;;;2.95;;
66421;SDS011;53228;51.380;0.098;2024-02-28T14:35:50;8.60;;;2.92;;
66421;SDS011;53228;51.380;0.098;2024-02-28T14:38:18;7.10;;;2.60;;
66421;SDS011;53228;51.380;0.098;2024-02-28T14:40:46;10.52;;;2.80;;
66421;SDS011;53228;51.380;0.098;2024-02-28T14:43:14;11.63;;;2.75;;
66421;SDS011;53228;51.380;0.098;2024-02-28T14:45:42;11.27;;;2.45;;
66421;SDS011;53228;51.380;0.098;2024-02-28T14:48:10;10.57;;;2.30;;
66421;SDS011;53228;51.380;0.098;2024-02-28T14:50:38;9.50;;;2.45;;
66421;SDS011;53228;51.380;0.098;2024-02-28T14:53:05;7.93;;;2.45;;